LSGG/GVA METAR and TAF weather

Enter ICAO airport designator
Station Type Date Time Source
LSGG METAR 2020/10/20 17:50 UTC NOAA

LSGG 201750Z 25005KT 9999 FEW090 14/07 Q1015 NOSIG


Station Type Date Time Source
LSGG Decoded METAR 2020/10/20 17:50 UTC NOAA

Geneve-Cointrin, Switzerland (LSGG) 46-15N 006-08E 416M
Oct 20, 2020 - 01:50 PM EDT / 2020.10.20 1750 UTC
Wind: from the WSW (250 degrees) at 6 MPH (5 KT):0
Visibility: greater than 7 mile(s):0
Sky conditions: mostly clear
Temperature: 57 F (14 C)
Dew Point: 44 F (7 C)
Relative Humidity: 62%
Pressure (altimeter): 29.97 in. Hg (1015 hPa)
ob: LSGG 201750Z 25005KT 9999 FEW090 14/07 Q1015 NOSIG
cycle: 18

Station Type Date Time Source
LSGG TAF 2020/10/20 18:33 UTC NOAA

TAF TAF LSGG 201725Z 2018/2124 25008KT CAVOK TX17/2114Z TN08/2105Z
BECMG 2112/2114 9999 BKN050

Example: see airport list